sensor_id;sensor_type;location;lat;lon;timestamp;temperature;humidity
39889;DHT22;25563;50.844;4.308;2022-12-07T00:01:22;7.40;99.90
39889;DHT22;25563;50.844;4.308;2022-12-07T00:03:50;7.40;99.90
39889;DHT22;25563;50.844;4.308;2022-12-07T00:06:17;7.30;99.90
39889;DHT22;25563;50.844;4.308;2022-12-07T00:08:44;7.30;99.90
39889;DHT22;25563;50.844;4.308;2022-12-07T00:11:18;7.20;99.90
39889;DHT22;25563;50.844;4.308;2022-12-07T00:13:44;7.20;99.90
39889;DHT22;25563;50.844;4.308;2022-12-07T00:16:13;7.10;99.90
39889;DHT22;25563;50.844;4.308;2022-12-07T00:18:39;7.10;99.90
39889;DHT22;25563;50.844;4.308;2022-12-07T00:21:08;7.10;99.90
39889;DHT22;25563;50.844;4.308;2022-12-07T00:23:34;7.10;99.90
39889;DHT22;25563;50.844;4.308;2022-12-07T00:26:11;7.10;99.90
39889;DHT22;25563;50.844;4.308;2022-12-07T00:28:38;7.00;99.90
39889;DHT22;25563;50.844;4.308;2022-12-07T00:31:09;6.90;99.90
39889;DHT22;25563;50.844;4.308;2022-12-07T00:33:36;6.90;99.90
39889;DHT22;25563;50.844;4.308;2022-12-07T00:36:09;7.00;99.90
39889;DHT22;25563;50.844;4.308;2022-12-07T00:38:38;7.00;99.90
39889;DHT22;25563;50.844;4.308;2022-12-07T00:41:16;7.00;99.90
39889;DHT22;25563;50.844;4.308;2022-12-07T00:43:43;6.90;99.90
39889;DHT22;25563;50.844;4.308;2022-12-07T00:46:09;7.00;99.90
39889;DHT22;25563;50.844;4.308;2022-12-07T00:48:35;6.90;99.90
39889;DHT22;25563;50.844;4.308;2022-12-07T00:51:02;6.90;99.90
39889;DHT22;25563;50.844;4.308;2022-12-07T00:53:28;6.80;99.90
39889;DHT22;25563;50.844;4.308;2022-12-07T00:55:54;6.80;99.90
39889;DHT22;25563;50.844;4.308;2022-12-07T00:58:22;7.20;99.90
39889;DHT22;25563;50.844;4.308;2022-12-07T01:00:49;6.60;99.90
39889;DHT22;25563;50.844;4.308;2022-12-07T01:03:15;6.60;99.90
39889;DHT22;25563;50.844;4.308;2022-12-07T01:05:53;6.60;99.90
39889;DHT22;25563;50.844;4.308;2022-12-07T01:08:20;6.50;99.90
39889;DHT22;25563;50.844;4.308;2022-12-07T01:10:46;6.50;99.90
39889;DHT22;25563;50.844;4.308;2022-12-07T01:13:12;6.50;99.90
39889;DHT22;25563;50.844;4.308;2022-12-07T01:15:42;6.40;99.90
39889;DHT22;25563;50.844;4.308;2022-12-07T01:18:08;6.40;99.90
39889;DHT22;25563;50.844;4.308;2022-12-07T01:20:36;6.40;99.90
39889;DHT22;25563;50.844;4.308;2022-12-07T01:23:03;6.30;99.90
39889;DHT22;25563;50.844;4.308;2022-12-07T01:25:28;6.30;99.90
39889;DHT22;25563;50.844;4.308;2022-12-07T01:27:54;6.30;99.90
39889;DHT22;25563;50.844;4.308;2022-12-07T01:30:20;6.30;99.90
39889;DHT22;25563;50.844;4.308;2022-12-07T01:32:46;6.40;99.90
39889;DHT22;25563;50.844;4.308;2022-12-07T01:35:11;6.30;99.90
39889;DHT22;25563;50.844;4.308;2022-12-07T01:37:38;6.30;99.90
39889;DHT22;25563;50.844;4.308;2022-12-07T01:40:07;6.40;99.90
39889;DHT22;25563;50.844;4.308;2022-12-07T01:42:34;6.30;99.90
39889;DHT22;25563;50.844;4.308;2022-12-07T01:47:51;6.30;99.90
39889;DHT22;25563;50.844;4.308;2022-12-07T01:50:18;6.40;99.90
39889;DHT22;25563;50.844;4.308;2022-12-07T01:52:46;6.40;99.90
39889;DHT22;25563;50.844;4.308;2022-12-07T01:55:14;6.40;99.90
39889;DHT22;25563;50.844;4.308;2022-12-07T01:57:45;6.30;99.90
39889;DHT22;25563;50.844;4.308;2022-12-07T02:00:13;6.40;99.90
39889;DHT22;25563;50.844;4.308;2022-12-07T02:05:13;6.60;99.90
39889;DHT22;25563;50.844;4.308;2022-12-07T02:07:39;6.70;99.90
39889;DHT22;25563;50.844;4.308;2022-12-07T02:10:20;6.80;99.90
39889;DHT22;25563;50.844;4.308;2022-12-07T02:12:49;6.90;99.90
39889;DHT22;25563;50.844;4.308;2022-12-07T02:15:15;6.90;99.90
39889;DHT22;25563;50.844;4.308;2022-12-07T02:17:51;6.90;99.90
39889;DHT22;25563;50.844;4.308;2022-12-07T02:21:09;6.90;99.90
39889;DHT22;25563;50.844;4.308;2022-12-07T02:29:25;6.70;99.90
39889;DHT22;25563;50.844;4.308;2022-12-07T02:32:16;6.70;99.90
39889;DHT22;25563;50.844;4.308;2022-12-07T02:35:48;6.60;99.90
39889;DHT22;25563;50.844;4.308;2022-12-07T02:38:28;6.60;99.90
39889;DHT22;25563;50.844;4.308;2022-12-07T02:43:50;6.70;99.90
39889;DHT22;25563;50.844;4.308;2022-12-07T02:46:22;6.60;99.90
39889;DHT22;25563;50.844;4.308;2022-12-07T02:48:50;6.60;99.90
39889;DHT22;25563;50.844;4.308;2022-12-07T02:51:18;6.50;99.90
39889;DHT22;25563;50.844;4.308;2022-12-07T02:53:44;6.40;99.90
39889;DHT22;25563;50.844;4.308;2022-12-07T03:02:08;6.10;99.90
39889;DHT22;25563;50.844;4.308;2022-12-07T03:07:39;6.10;99.90
39889;DHT22;25563;50.844;4.308;2022-12-07T03:18:28;5.90;99.90
39889;DHT22;25563;50.844;4.308;2022-12-07T03:21:00;5.90;99.90
39889;DHT22;25563;50.844;4.308;2022-12-07T03:23:27;5.90;99.90
39889;DHT22;25563;50.844;4.308;2022-12-07T03:25:59;5.90;99.90
39889;DHT22;25563;50.844;4.308;2022-12-07T03:28:30;5.90;99.90
39889;DHT22;25563;50.844;4.308;2022-12-07T03:31:16;6.00;99.90
39889;DHT22;25563;50.844;4.308;2022-12-07T03:36:41;6.10;99.90
39889;DHT22;25563;50.844;4.308;2022-12-07T03:39:31;6.20;99.90
39889;DHT22;25563;50.844;4.308;2022-12-07T03:42:00;6.30;99.90
39889;DHT22;25563;50.844;4.308;2022-12-07T03:44:28;6.30;99.90
39889;DHT22;25563;50.844;4.308;2022-12-07T03:50:21;6.30;99.90
39889;DHT22;25563;50.844;4.308;2022-12-07T03:53:08;6.30;99.90
39889;DHT22;25563;50.844;4.308;2022-12-07T03:55:40;6.20;99.90
39889;DHT22;25563;50.844;4.308;2022-12-07T03:58:12;6.10;99.90
39889;DHT22;25563;50.844;4.308;2022-12-07T04:00:41;6.10;99.90
39889;DHT22;25563;50.844;4.308;2022-12-07T04:03:07;6.00;99.90
39889;DHT22;25563;50.844;4.308;2022-12-07T04:05:33;6.00;99.90
39889;DHT22;25563;50.844;4.308;2022-12-07T04:07:58;6.00;99.90
39889;DHT22;25563;50.844;4.308;2022-12-07T04:10:25;5.90;99.90
39889;DHT22;25563;50.844;4.308;2022-12-07T04:12:51;5.90;99.90
39889;DHT22;25563;50.844;4.308;2022-12-07T04:15:17;5.90;99.90
39889;DHT22;25563;50.844;4.308;2022-12-07T04:17:43;5.90;99.90
39889;DHT22;25563;50.844;4.308;2022-12-07T04:20:09;5.90;99.90
39889;DHT22;25563;50.844;4.308;2022-12-07T04:22:37;5.80;99.90
39889;DHT22;25563;50.844;4.308;2022-12-07T04:25:03;5.80;99.90
39889;DHT22;25563;50.844;4.308;2022-12-07T04:27:30;5.80;99.90
39889;DHT22;25563;50.844;4.308;2022-12-07T04:29:55;5.80;99.90
39889;DHT22;25563;50.844;4.308;2022-12-07T04:32:22;5.80;99.90
39889;DHT22;25563;50.844;4.308;2022-12-07T04:34:48;5.70;99.90
39889;DHT22;25563;50.844;4.308;2022-12-07T04:37:14;5.70;99.90
39889;DHT22;25563;50.844;4.308;2022-12-07T04:39:40;5.70;99.90
39889;DHT22;25563;50.844;4.308;2022-12-07T04:42:06;5.80;99.90
39889;DHT22;25563;50.844;4.308;2022-12-07T04:44:32;5.80;99.90
39889;DHT22;25563;50.844;4.308;2022-12-07T04:46:58;5.90;99.90
39889;DHT22;25563;50.844;4.308;2022-12-07T04:49:24;6.00;99.90
39889;DHT22;25563;50.844;4.308;2022-12-07T04:51:51;6.10;99.90
39889;DHT22;25563;50.844;4.308;2022-12-07T04:54:17;6.20;99.90
39889;DHT22;25563;50.844;4.308;2022-12-07T04:56:44;6.20;99.90
39889;DHT22;25563;50.844;4.308;2022-12-07T04:59:14;6.30;99.90
39889;DHT22;25563;50.844;4.308;2022-12-07T05:01:41;6.30;99.90
39889;DHT22;25563;50.844;4.308;2022-12-07T05:04:08;6.20;99.90
39889;DHT22;25563;50.844;4.308;2022-12-07T05:06:36;6.20;99.90
39889;DHT22;25563;50.844;4.308;2022-12-07T05:09:03;6.10;99.90
39889;DHT22;25563;50.844;4.308;2022-12-07T05:11:29;6.00;99.90
39889;DHT22;25563;50.844;4.308;2022-12-07T05:14:12;5.90;99.90
39889;DHT22;25563;50.844;4.308;2022-12-07T05:16:40;5.90;99.90
39889;DHT22;25563;50.844;4.308;2022-12-07T05:19:07;5.80;99.90
39889;DHT22;25563;50.844;4.308;2022-12-07T05:21:34;5.80;99.90
39889;DHT22;25563;50.844;4.308;2022-12-07T05:23:59;5.80;99.90
39889;DHT22;25563;50.844;4.308;2022-12-07T05:26:25;5.80;99.90
39889;DHT22;25563;50.844;4.308;2022-12-07T05:28:54;5.80;99.90
39889;DHT22;25563;50.844;4.308;2022-12-07T05:31:22;5.90;99.90
39889;DHT22;25563;50.844;4.308;2022-12-07T05:33:48;6.00;99.90
39889;DHT22;25563;50.844;4.308;2022-12-07T05:36:14;6.10;99.90
39889;DHT22;25563;50.844;4.308;2022-12-07T05:38:40;6.10;99.90
39889;DHT22;25563;50.844;4.308;2022-12-07T05:41:07;6.10;99.90
39889;DHT22;25563;50.844;4.308;2022-12-07T05:43:33;6.00;99.90
39889;DHT22;25563;50.844;4.308;2022-12-07T05:45:59;6.20;99.90
39889;DHT22;25563;50.844;4.308;2022-12-07T05:48:25;5.80;99.90
39889;DHT22;25563;50.844;4.308;2022-12-07T05:50:52;5.80;99.90
39889;DHT22;25563;50.844;4.308;2022-12-07T05:53:18;5.80;99.90
39889;DHT22;25563;50.844;4.308;2022-12-07T05:55:44;5.80;99.90
39889;DHT22;25563;50.844;4.308;2022-12-07T05:58:10;5.80;99.90
39889;DHT22;25563;50.844;4.308;2022-12-07T06:00:55;6.10;99.90
39889;DHT22;25563;50.844;4.308;2022-12-07T06:03:22;5.90;99.90
39889;DHT22;25563;50.844;4.308;2022-12-07T06:05:48;5.90;99.90
39889;DHT22;25563;50.844;4.308;2022-12-07T06:08:14;5.90;99.90
39889;DHT22;25563;50.844;4.308;2022-12-07T06:10:41;5.80;99.90
39889;DHT22;25563;50.844;4.308;2022-12-07T06:13:07;5.80;99.90
39889;DHT22;25563;50.844;4.308;2022-12-07T06:15:36;5.70;99.90
39889;DHT22;25563;50.844;4.308;2022-12-07T06:18:03;5.70;99.90
39889;DHT22;25563;50.844;4.308;2022-12-07T06:20:29;5.70;99.90
39889;DHT22;25563;50.844;4.308;2022-12-07T06:22:55;5.80;99.90
39889;DHT22;25563;50.844;4.308;2022-12-07T06:25:21;5.80;99.90
39889;DHT22;25563;50.844;4.308;2022-12-07T06:27:47;5.90;99.90
39889;DHT22;25563;50.844;4.308;2022-12-07T06:30:13;6.00;99.90
39889;DHT22;25563;50.844;4.308;2022-12-07T06:32:38;6.00;99.90
39889;DHT22;25563;50.844;4.308;2022-12-07T06:35:04;6.10;99.90
39889;DHT22;25563;50.844;4.308;2022-12-07T06:37:30;6.10;99.90
39889;DHT22;25563;50.844;4.308;2022-12-07T06:39:56;6.20;99.90
39889;DHT22;25563;50.844;4.308;2022-12-07T06:42:22;6.20;99.90
39889;DHT22;25563;50.844;4.308;2022-12-07T06:44:48;6.10;99.90
39889;DHT22;25563;50.844;4.308;2022-12-07T06:47:13;6.10;99.90
39889;DHT22;25563;50.844;4.308;2022-12-07T06:49:39;6.20;99.90
39889;DHT22;25563;50.844;4.308;2022-12-07T06:52:05;6.20;99.90
39889;DHT22;25563;50.844;4.308;2022-12-07T06:54:31;6.20;99.90
39889;DHT22;25563;50.844;4.308;2022-12-07T06:57:02;6.30;99.90
39889;DHT22;25563;50.844;4.308;2022-12-07T06:59:28;6.30;99.90
39889;DHT22;25563;50.844;4.308;2022-12-07T07:01:54;6.30;99.90
39889;DHT22;25563;50.844;4.308;2022-12-07T07:04:20;6.30;99.90
39889;DHT22;25563;50.844;4.308;2022-12-07T07:06:48;6.30;99.90
39889;DHT22;25563;50.844;4.308;2022-12-07T07:09:13;6.30;99.90
39889;DHT22;25563;50.844;4.308;2022-12-07T07:11:39;6.30;99.90
39889;DHT22;25563;50.844;4.308;2022-12-07T07:14:05;6.30;99.90
39889;DHT22;25563;50.844;4.308;2022-12-07T07:16:31;6.40;99.90
39889;DHT22;25563;50.844;4.308;2022-12-07T07:18:57;6.40;99.90
39889;DHT22;25563;50.844;4.308;2022-12-07T07:21:24;6.40;99.90
39889;DHT22;25563;50.844;4.308;2022-12-07T07:23:51;6.50;99.90
39889;DHT22;25563;50.844;4.308;2022-12-07T07:26:17;6.50;99.90
39889;DHT22;25563;50.844;4.308;2022-12-07T07:28:43;6.60;99.90
39889;DHT22;25563;50.844;4.308;2022-12-07T07:31:08;6.60;99.90
39889;DHT22;25563;50.844;4.308;2022-12-07T07:33:34;6.50;99.90
39889;DHT22;25563;50.844;4.308;2022-12-07T07:36:01;6.60;99.90
39889;DHT22;25563;50.844;4.308;2022-12-07T07:38:30;6.50;99.90
39889;DHT22;25563;50.844;4.308;2022-12-07T07:40:56;6.60;99.90
39889;DHT22;25563;50.844;4.308;2022-12-07T07:43:22;6.60;99.90
39889;DHT22;25563;50.844;4.308;2022-12-07T07:45:47;6.60;99.90
39889;DHT22;25563;50.844;4.308;2022-12-07T07:48:14;6.60;99.90
39889;DHT22;25563;50.844;4.308;2022-12-07T07:50:40;6.70;99.90
39889;DHT22;25563;50.844;4.308;2022-12-07T07:53:05;6.70;99.90
39889;DHT22;25563;50.844;4.308;2022-12-07T07:55:31;6.10;99.90
39889;DHT22;25563;50.844;4.308;2022-12-07T07:57:57;6.60;99.90
39889;DHT22;25563;50.844;4.308;2022-12-07T08:00:24;6.50;99.90
39889;DHT22;25563;50.844;4.308;2022-12-07T08:02:50;6.50;99.90
39889;DHT22;25563;50.844;4.308;2022-12-07T08:05:16;6.40;99.90
39889;DHT22;25563;50.844;4.308;2022-12-07T08:07:45;6.40;99.90
39889;DHT22;25563;50.844;4.308;2022-12-07T08:10:30;6.30;99.90
39889;DHT22;25563;50.844;4.308;2022-12-07T08:13:13;6.30;99.90
39889;DHT22;25563;50.844;4.308;2022-12-07T08:15:48;6.20;99.90
39889;DHT22;25563;50.844;4.308;2022-12-07T08:18:15;6.20;99.90
39889;DHT22;25563;50.844;4.308;2022-12-07T08:20:41;6.20;99.90
39889;DHT22;25563;50.844;4.308;2022-12-07T08:23:09;6.20;99.90
39889;DHT22;25563;50.844;4.308;2022-12-07T08:25:37;6.10;99.90
39889;DHT22;25563;50.844;4.308;2022-12-07T08:28:03;6.20;99.90
39889;DHT22;25563;50.844;4.308;2022-12-07T08:30:29;6.10;99.90
39889;DHT22;25563;50.844;4.308;2022-12-07T08:32:56;6.10;99.90
39889;DHT22;25563;50.844;4.308;2022-12-07T08:35:22;6.10;99.90
39889;DHT22;25563;50.844;4.308;2022-12-07T08:37:47;6.10;99.90
39889;DHT22;25563;50.844;4.308;2022-12-07T08:40:14;6.10;99.90
39889;DHT22;25563;50.844;4.308;2022-12-07T08:42:52;6.20;99.90
39889;DHT22;25563;50.844;4.308;2022-12-07T08:45:19;6.30;99.90
39889;DHT22;25563;50.844;4.308;2022-12-07T08:47:55;6.50;99.90
39889;DHT22;25563;50.844;4.308;2022-12-07T08:50:22;6.70;99.90
39889;DHT22;25563;50.844;4.308;2022-12-07T08:52:52;6.90;99.90
39889;DHT22;25563;50.844;4.308;2022-12-07T08:55:20;7.00;99.90
39889;DHT22;25563;50.844;4.308;2022-12-07T08:57:47;7.10;99.90
39889;DHT22;25563;50.844;4.308;2022-12-07T09:00:13;7.10;99.90
39889;DHT22;25563;50.844;4.308;2022-12-07T09:02:39;6.60;99.90
39889;DHT22;25563;50.844;4.308;2022-12-07T09:05:05;7.30;99.90
39889;DHT22;25563;50.844;4.308;2022-12-07T09:07:33;7.30;99.90
39889;DHT22;25563;50.844;4.308;2022-12-07T09:10:01;7.40;99.90
39889;DHT22;25563;50.844;4.308;2022-12-07T09:12:27;7.50;99.90
39889;DHT22;25563;50.844;4.308;2022-12-07T09:14:53;7.50;99.90
39889;DHT22;25563;50.844;4.308;2022-12-07T09:18:00;7.50;99.90
39889;DHT22;25563;50.844;4.308;2022-12-07T09:20:25;7.50;99.90
39889;DHT22;25563;50.844;4.308;2022-12-07T09:22:55;7.60;99.90
39889;DHT22;25563;50.844;4.308;2022-12-07T09:25:21;7.60;99.90
39889;DHT22;25563;50.844;4.308;2022-12-07T09:27:55;7.80;99.90
39889;DHT22;25563;50.844;4.308;2022-12-07T09:30:25;7.90;99.90
39889;DHT22;25563;50.844;4.308;2022-12-07T09:32:54;7.80;99.90
39889;DHT22;25563;50.844;4.308;2022-12-07T09:35:20;7.80;99.90
39889;DHT22;25563;50.844;4.308;2022-12-07T09:37:46;7.80;99.90
39889;DHT22;25563;50.844;4.308;2022-12-07T09:40:13;7.80;99.90
39889;DHT22;25563;50.844;4.308;2022-12-07T09:42:46;8.00;99.90
39889;DHT22;25563;50.844;4.308;2022-12-07T09:45:21;7.70;99.90
39889;DHT22;25563;50.844;4.308;2022-12-07T09:47:48;8.20;99.90
39889;DHT22;25563;50.844;4.308;2022-12-07T09:50:24;8.10;99.90
39889;DHT22;25563;50.844;4.308;2022-12-07T09:52:54;8.00;99.90
39889;DHT22;25563;50.844;4.308;2022-12-07T09:55:28;8.00;99.90
39889;DHT22;25563;50.844;4.308;2022-12-07T09:57:55;8.20;99.90
39889;DHT22;25563;50.844;4.308;2022-12-07T10:00:22;7.40;99.90
39889;DHT22;25563;50.844;4.308;2022-12-07T10:03:17;8.30;99.90
39889;DHT22;25563;50.844;4.308;2022-12-07T10:05:54;8.40;99.90
39889;DHT22;25563;50.844;4.308;2022-12-07T10:08:20;8.50;99.90
39889;DHT22;25563;50.844;4.308;2022-12-07T10:10:51;8.50;99.90
39889;DHT22;25563;50.844;4.308;2022-12-07T10:13:32;8.50;99.90
39889;DHT22;25563;50.844;4.308;2022-12-07T10:15:59;8.40;99.90
39889;DHT22;25563;50.844;4.308;2022-12-07T10:18:34;8.40;99.90
39889;DHT22;25563;50.844;4.308;2022-12-07T10:21:22;8.30;99.90
39889;DHT22;25563;50.844;4.308;2022-12-07T10:24:14;7.80;99.90
39889;DHT22;25563;50.844;4.308;2022-12-07T10:29:17;8.70;99.90
39889;DHT22;25563;50.844;4.308;2022-12-07T10:31:44;8.70;99.90
39889;DHT22;25563;50.844;4.308;2022-12-07T10:34:26;8.80;99.90
39889;DHT22;25563;50.844;4.308;2022-12-07T10:39:43;9.00;99.90
39889;DHT22;25563;50.844;4.308;2022-12-07T10:42:19;9.00;99.90
39889;DHT22;25563;50.844;4.308;2022-12-07T10:44:45;9.00;99.90
39889;DHT22;25563;50.844;4.308;2022-12-07T10:47:44;9.10;99.90
39889;DHT22;25563;50.844;4.308;2022-12-07T11:01:23;9.30;99.90
39889;DHT22;25563;50.844;4.308;2022-12-07T11:15:48;9.60;99.90
39889;DHT22;25563;50.844;4.308;2022-12-07T11:18:27;9.60;99.90
39889;DHT22;25563;50.844;4.308;2022-12-07T11:21:29;9.50;99.90
39889;DHT22;25563;50.844;4.308;2022-12-07T11:24:18;9.30;99.90
39889;DHT22;25563;50.844;4.308;2022-12-07T11:29:55;9.00;99.90
39889;DHT22;25563;50.844;4.308;2022-12-07T11:38:26;8.00;99.90
39889;DHT22;25563;50.844;4.308;2022-12-07T11:41:00;8.70;99.90
39889;DHT22;25563;50.844;4.308;2022-12-07T11:44:07;9.00;99.90
39889;DHT22;25563;50.844;4.308;2022-12-07T11:49:13;10.30;99.90
39889;DHT22;25563;50.844;4.308;2022-12-07T11:51:40;11.90;99.90
39889;DHT22;25563;50.844;4.308;2022-12-07T11:54:26;13.50;99.90
39889;DHT22;25563;50.844;4.308;2022-12-07T11:56:56;14.80;97.00
39889;DHT22;25563;50.844;4.308;2022-12-07T11:59:36;15.90;95.40
39889;DHT22;25563;50.844;4.308;2022-12-07T12:02:13;16.60;94.20
39889;DHT22;25563;50.844;4.308;2022-12-07T12:04:58;17.00;92.50
39889;DHT22;25563;50.844;4.308;2022-12-07T12:07:26;16.20;92.70
39889;DHT22;25563;50.844;4.308;2022-12-07T12:10:05;15.20;93.30
39889;DHT22;25563;50.844;4.308;2022-12-07T12:13:23;14.30;94.00
39889;DHT22;25563;50.844;4.308;2022-12-07T12:16:04;13.50;94.70
39889;DHT22;25563;50.844;4.308;2022-12-07T12:21:29;12.20;95.40
39889;DHT22;25563;50.844;4.308;2022-12-07T12:24:14;11.70;96.00
39889;DHT22;25563;50.844;4.308;2022-12-07T12:26:50;11.20;96.60
39889;DHT22;25563;50.844;4.308;2022-12-07T12:29:27;10.90;97.50
39889;DHT22;25563;50.844;4.308;2022-12-07T12:32:20;10.70;97.90
39889;DHT22;25563;50.844;4.308;2022-12-07T12:37:47;10.80;98.40
39889;DHT22;25563;50.844;4.308;2022-12-07T12:48:26;10.50;98.30
39889;DHT22;25563;50.844;4.308;2022-12-07T12:54:23;10.30;98.80
39889;DHT22;25563;50.844;4.308;2022-12-07T13:02:32;11.10;98.60
39889;DHT22;25563;50.844;4.308;2022-12-07T13:23:39;10.60;98.50
39889;DHT22;25563;50.844;4.308;2022-12-07T13:29:11;10.50;98.60
39889;DHT22;25563;50.844;4.308;2022-12-07T13:31:56;10.40;98.70
39889;DHT22;25563;50.844;4.308;2022-12-07T13:34:38;10.40;98.80
39889;DHT22;25563;50.844;4.308;2022-12-07T13:37:27;10.30;98.90
39889;DHT22;25563;50.844;4.308;2022-12-07T13:39:59;10.10;98.90
39889;DHT22;25563;50.844;4.308;2022-12-07T13:42:30;10.10;99.20
39889;DHT22;25563;50.844;4.308;2022-12-07T13:44:58;9.90;99.10
39889;DHT22;25563;50.844;4.308;2022-12-07T13:47:43;9.90;99.30
39889;DHT22;25563;50.844;4.308;2022-12-07T13:50:36;9.90;99.20
39889;DHT22;25563;50.844;4.308;2022-12-07T13:53:07;9.90;99.20
39889;DHT22;25563;50.844;4.308;2022-12-07T13:55:44;9.90;99.10
39889;DHT22;25563;50.844;4.308;2022-12-07T13:58:10;9.70;99.10
39889;DHT22;25563;50.844;4.308;2022-12-07T14:00:37;9.70;99.20
39889;DHT22;25563;50.844;4.308;2022-12-07T14:05:39;9.20;99.90
39889;DHT22;25563;50.844;4.308;2022-12-07T14:08:22;9.00;99.90
39889;DHT22;25563;50.844;4.308;2022-12-07T14:15:56;8.40;99.90
39889;DHT22;25563;50.844;4.308;2022-12-07T14:21:16;8.20;99.90
39889;DHT22;25563;50.844;4.308;2022-12-07T14:23:47;8.20;99.90
39889;DHT22;25563;50.844;4.308;2022-12-07T14:26:27;8.20;99.90
39889;DHT22;25563;50.844;4.308;2022-12-07T14:31:45;7.90;99.90
39889;DHT22;25563;50.844;4.308;2022-12-07T14:34:14;6.80;99.90
39889;DHT22;25563;50.844;4.308;2022-12-07T14:36:40;7.50;99.90
39889;DHT22;25563;50.844;4.308;2022-12-07T14:39:06;7.30;99.90
39889;DHT22;25563;50.844;4.308;2022-12-07T14:41:34;7.30;99.90
39889;DHT22;25563;50.844;4.308;2022-12-07T14:44:23;7.20;99.90
39889;DHT22;25563;50.844;4.308;2022-12-07T14:46:55;7.20;99.90
39889;DHT22;25563;50.844;4.308;2022-12-07T14:49:22;7.20;99.90
39889;DHT22;25563;50.844;4.308;2022-12-07T14:51:48;7.20;99.90
39889;DHT22;25563;50.844;4.308;2022-12-07T14:54:18;7.20;99.90
39889;DHT22;25563;50.844;4.308;2022-12-07T14:56:45;7.20;99.90
39889;DHT22;25563;50.844;4.308;2022-12-07T14:59:15;7.30;99.90
39889;DHT22;25563;50.844;4.308;2022-12-07T15:01:40;7.30;99.90
39889;DHT22;25563;50.844;4.308;2022-12-07T15:04:08;7.30;99.90
39889;DHT22;25563;50.844;4.308;2022-12-07T15:06:41;7.40;99.90
39889;DHT22;25563;50.844;4.308;2022-12-07T15:09:11;7.40;99.90
39889;DHT22;25563;50.844;4.308;2022-12-07T15:11:37;7.50;99.90
39889;DHT22;25563;50.844;4.308;2022-12-07T15:14:03;7.50;99.90
39889;DHT22;25563;50.844;4.308;2022-12-07T15:16:40;7.50;99.90
39889;DHT22;25563;50.844;4.308;2022-12-07T15:19:13;7.50;99.90
39889;DHT22;25563;50.844;4.308;2022-12-07T15:21:42;7.60;99.90
39889;DHT22;25563;50.844;4.308;2022-12-07T15:24:11;7.70;99.90
39889;DHT22;25563;50.844;4.308;2022-12-07T15:26:39;7.60;99.90
39889;DHT22;25563;50.844;4.308;2022-12-07T15:29:06;7.70;99.90
39889;DHT22;25563;50.844;4.308;2022-12-07T15:31:42;7.10;99.90
39889;DHT22;25563;50.844;4.308;2022-12-07T15:34:08;7.60;99.90
39889;DHT22;25563;50.844;4.308;2022-12-07T15:36:37;7.50;99.90
39889;DHT22;25563;50.844;4.308;2022-12-07T15:39:03;7.50;99.90
39889;DHT22;25563;50.844;4.308;2022-12-07T15:41:29;7.50;99.90
39889;DHT22;25563;50.844;4.308;2022-12-07T15:44:06;7.50;99.90
39889;DHT22;25563;50.844;4.308;2022-12-07T15:46:54;7.40;99.90
39889;DHT22;25563;50.844;4.308;2022-12-07T15:49:20;7.40;99.90
39889;DHT22;25563;50.844;4.308;2022-12-07T15:51:46;7.30;99.90
39889;DHT22;25563;50.844;4.308;2022-12-07T15:54:19;7.30;99.90
39889;DHT22;25563;50.844;4.308;2022-12-07T15:56:46;7.20;99.90
39889;DHT22;25563;50.844;4.308;2022-12-07T15:59:15;7.20;99.90
39889;DHT22;25563;50.844;4.308;2022-12-07T16:01:42;7.20;99.90
39889;DHT22;25563;50.844;4.308;2022-12-07T16:04:08;7.20;99.90
39889;DHT22;25563;50.844;4.308;2022-12-07T16:06:33;7.10;99.90
39889;DHT22;25563;50.844;4.308;2022-12-07T16:09:00;7.10;99.90
39889;DHT22;25563;50.844;4.308;2022-12-07T16:11:26;7.20;99.90
39889;DHT22;25563;50.844;4.308;2022-12-07T16:13:52;6.20;99.90
39889;DHT22;25563;50.844;4.308;2022-12-07T16:16:19;7.20;99.90
39889;DHT22;25563;50.844;4.308;2022-12-07T16:18:47;7.10;99.90
39889;DHT22;25563;50.844;4.308;2022-12-07T16:21:19;7.10;99.90
39889;DHT22;25563;50.844;4.308;2022-12-07T16:23:47;6.10;99.90
39889;DHT22;25563;50.844;4.308;2022-12-07T16:26:22;7.20;99.90
39889;DHT22;25563;50.844;4.308;2022-12-07T16:28:49;7.30;99.90
39889;DHT22;25563;50.844;4.308;2022-12-07T16:31:18;7.30;99.90
39889;DHT22;25563;50.844;4.308;2022-12-07T16:33:44;7.30;99.90
39889;DHT22;25563;50.844;4.308;2022-12-07T16:36:12;6.60;99.90
39889;DHT22;25563;50.844;4.308;2022-12-07T16:38:42;7.30;99.90
39889;DHT22;25563;50.844;4.308;2022-12-07T16:41:11;7.20;99.90
39889;DHT22;25563;50.844;4.308;2022-12-07T16:43:41;6.40;99.90
39889;DHT22;25563;50.844;4.308;2022-12-07T16:46:07;7.20;99.90
39889;DHT22;25563;50.844;4.308;2022-12-07T16:48:38;7.30;99.90
39889;DHT22;25563;50.844;4.308;2022-12-07T16:51:05;7.30;99.90
39889;DHT22;25563;50.844;4.308;2022-12-07T16:53:35;7.30;99.90
39889;DHT22;25563;50.844;4.308;2022-12-07T16:56:02;7.30;99.90
39889;DHT22;25563;50.844;4.308;2022-12-07T16:58:28;7.30;99.90
39889;DHT22;25563;50.844;4.308;2022-12-07T17:00:54;6.00;99.90
39889;DHT22;25563;50.844;4.308;2022-12-07T17:03:20;7.30;99.90
39889;DHT22;25563;50.844;4.308;2022-12-07T17:05:47;7.30;99.90
39889;DHT22;25563;50.844;4.308;2022-12-07T17:08:15;8.50;99.90
39889;DHT22;25563;50.844;4.308;2022-12-07T17:10:43;7.40;99.90
39889;DHT22;25563;50.844;4.308;2022-12-07T17:13:10;7.40;99.90
39889;DHT22;25563;50.844;4.308;2022-12-07T17:16:12;7.40;99.90
39889;DHT22;25563;50.844;4.308;2022-12-07T17:18:39;7.50;99.90
39889;DHT22;25563;50.844;4.308;2022-12-07T17:21:08;7.50;99.90
39889;DHT22;25563;50.844;4.308;2022-12-07T17:23:37;7.50;99.90
39889;DHT22;25563;50.844;4.308;2022-12-07T17:26:07;7.50;99.90
39889;DHT22;25563;50.844;4.308;2022-12-07T17:28:34;7.50;99.90
39889;DHT22;25563;50.844;4.308;2022-12-07T17:31:00;7.50;99.90
39889;DHT22;25563;50.844;4.308;2022-12-07T17:33:26;7.40;99.90
39889;DHT22;25563;50.844;4.308;2022-12-07T17:35:52;7.40;99.90
39889;DHT22;25563;50.844;4.308;2022-12-07T17:38:17;7.40;99.90
39889;DHT22;25563;50.844;4.308;2022-12-07T17:40:43;7.40;99.90
39889;DHT22;25563;50.844;4.308;2022-12-07T17:43:09;7.50;99.90
39889;DHT22;25563;50.844;4.308;2022-12-07T17:45:36;7.40;99.90
39889;DHT22;25563;50.844;4.308;2022-12-07T17:48:04;6.80;99.90
39889;DHT22;25563;50.844;4.308;2022-12-07T17:50:30;7.50;99.90
39889;DHT22;25563;50.844;4.308;2022-12-07T17:53:14;7.40;99.90
39889;DHT22;25563;50.844;4.308;2022-12-07T17:55:46;7.50;99.90
39889;DHT22;25563;50.844;4.308;2022-12-07T18:04:47;7.50;99.90
39889;DHT22;25563;50.844;4.308;2022-12-07T18:07:20;6.90;99.90
39889;DHT22;25563;50.844;4.308;2022-12-07T18:09:47;7.50;99.90
39889;DHT22;25563;50.844;4.308;2022-12-07T18:12:13;7.50;99.90
39889;DHT22;25563;50.844;4.308;2022-12-07T18:14:39;7.40;99.90
39889;DHT22;25563;50.844;4.308;2022-12-07T18:17:07;7.30;99.90
39889;DHT22;25563;50.844;4.308;2022-12-07T18:22:58;7.30;99.90
39889;DHT22;25563;50.844;4.308;2022-12-07T18:47:01;7.10;99.90
39889;DHT22;25563;50.844;4.308;2022-12-07T18:49:27;6.90;99.90
39889;DHT22;25563;50.844;4.308;2022-12-07T18:51:56;6.90;99.90